< < Back
Terminal Aerodrome Forecast


Current Version              Previous Versions:   1  2  3  4  5  6  7  8  9  

Terminal Aerodrome Forecast

253
FTUS44 KBMX 301500 AAB
TAFBHM
TAF AMD
KBHM 301541Z 3016/0112 12005KT P6SM OVC012
     FM301630 08005KT P6SM SCT025
     FM010200 00000KT P6SM SKC=

Latest METAR

359
SAUS70 KWBC 302000 RRO
MTRBHM
METAR KBHM 301953Z VRB05KT 10SM FEW037 SCT250 28/16 A2992 RMK AO2 SLP124
T02830161


USA.gov is the U.S. government's official web portal to all federal, state and local government web resources and services.